Terminal Aerodrome Forecast
Issued by NWS Miami, FL

Home | Current Version | Previous Version | Text Only | Print | Product List | Glossary On
Versions: 1 2 3 4 5 6 7 8 9 10 11 12 13 14 15 16 17 18 19 20 21 22 23 24 25 26 27 28 29 30 31 32
000
FTUS42 KMFL 270852 AAA
TAFFLL
TAF AMD
KFLL 270852Z 2709/2806 12005KT P6SM VCSH FEW025 SCT250
     FM271400 11013KT P6SM FEW030 SCT250
     FM280300 11009KT P6SM FEW020 SCT250=

USA.gov is the U.S. government's official web portal to all federal, state and local government web resources and services.